createdAt,value
2022-08-06T00:02:06.415Z,1.00
2022-08-06T00:04:34.413Z,0.95
2022-08-06T00:07:02.218Z,0.63
2022-08-06T00:09:31.897Z,0.93
2022-08-06T00:12:19.057Z,0.80
2022-08-06T00:14:46.708Z,1.13
2022-08-06T00:17:15.736Z,0.77
2022-08-06T00:19:57.738Z,0.60
2022-08-06T00:22:27.513Z,0.80
2022-08-06T00:24:55.904Z,0.90
2022-08-06T00:27:28.748Z,0.90
2022-08-06T00:29:57.165Z,0.70
2022-08-06T00:32:34.921Z,0.57
2022-08-06T00:35:02.682Z,0.70
2022-08-06T00:37:57.157Z,0.60
2022-08-06T00:40:23.734Z,0.57
2022-08-06T00:42:54.379Z,0.70
2022-08-06T00:45:24.774Z,0.82
2022-08-06T00:48:01.903Z,0.90
2022-08-06T00:50:31.765Z,0.70
2022-08-06T00:52:59.981Z,0.75
2022-08-06T00:55:31.567Z,0.73
2022-08-06T00:58:00.175Z,1.05
2022-08-06T01:00:29.586Z,0.70
2022-08-06T01:02:59.727Z,0.75
2022-08-06T01:06:03.923Z,0.70
2022-08-06T01:08:15.384Z,0.80
2022-08-06T01:10:43.642Z,0.98
2022-08-06T01:13:22.730Z,0.93
2022-08-06T01:16:08.765Z,0.73
2022-08-06T01:18:42.132Z,0.80
2022-08-06T01:21:58.939Z,0.70
2022-08-06T01:24:17.737Z,0.55
2022-08-06T01:26:54.265Z,1.05
2022-08-06T01:29:27.285Z,1.10
2022-08-06T01:32:06.325Z,1.27
2022-08-06T01:34:37.547Z,0.65
2022-08-06T01:37:10.304Z,0.77
2022-08-06T01:39:53.473Z,0.80
2022-08-06T01:42:35.858Z,0.70
2022-08-06T01:45:06.805Z,0.80
2022-08-06T01:47:53.849Z,0.73
2022-08-06T01:50:28.031Z,1.20
2022-08-06T01:52:59.913Z,0.80
2022-08-06T01:55:56.643Z,0.90
2022-08-06T01:58:29.618Z,0.80
2022-08-06T02:01:01.263Z,0.80
2022-08-06T02:03:49.459Z,0.65
2022-08-06T02:06:23.274Z,0.65
2022-08-06T02:08:58.873Z,1.05
2022-08-06T02:12:02.818Z,1.00
2022-08-06T02:14:14.981Z,0.80
2022-08-06T02:16:44.663Z,1.10
2022-08-06T02:19:15.925Z,1.05
2022-08-06T02:21:50.177Z,0.85
2022-08-06T02:24:20.900Z,0.80
2022-08-06T02:26:52.200Z,0.88
2022-08-06T02:29:20.737Z,0.75
2022-08-06T02:31:52.355Z,0.93
2022-08-06T02:34:29.814Z,1.30
2022-08-06T02:37:00.710Z,0.80
2022-08-06T02:39:51.192Z,1.02
2022-08-06T02:42:20.112Z,0.90
2022-08-06T02:44:50.653Z,0.80
2022-08-06T02:47:23.366Z,1.05
2022-08-06T02:50:14.181Z,0.60
2022-08-06T02:52:56.521Z,1.00
2022-08-06T02:55:29.571Z,0.80
2022-08-06T02:58:06.273Z,1.05
2022-08-06T03:00:38.335Z,0.75
2022-08-06T03:03:16.167Z,1.15
2022-08-06T03:05:55.808Z,1.20
2022-08-06T03:08:27.100Z,0.90
2022-08-06T03:10:56.098Z,0.90
2022-08-06T03:13:29.632Z,0.85
2022-08-06T03:16:04.729Z,0.85
2022-08-06T03:18:34.595Z,0.70
2022-08-06T03:21:02.933Z,0.70
2022-08-06T03:23:31.896Z,0.80
2022-08-06T03:26:04.935Z,0.80
2022-08-06T03:28:34.882Z,0.80
2022-08-06T03:31:04.053Z,0.80
2022-08-06T03:33:53.522Z,1.10
2022-08-06T03:36:22.901Z,1.05
2022-08-06T03:38:58.226Z,1.27
2022-08-06T03:41:29.180Z,0.80
2022-08-06T03:44:04.490Z,0.77
2022-08-06T03:46:36.261Z,0.80
2022-08-06T03:49:07.332Z,1.20
2022-08-06T03:51:52.822Z,0.90
2022-08-06T03:54:28.116Z,0.90
2022-08-06T03:56:57.880Z,0.68
2022-08-06T03:59:26.005Z,0.70
2022-08-06T04:02:06.313Z,0.80
2022-08-06T04:04:37.456Z,0.90
2022-08-06T04:07:05.619Z,1.10
2022-08-06T04:09:58.322Z,0.88
2022-08-06T04:12:54.857Z,1.15
2022-08-06T04:15:11.862Z,1.20
2022-08-06T04:17:42.784Z,0.73
2022-08-06T04:20:13.295Z,1.08
2022-08-06T04:23:06.117Z,0.75
2022-08-06T04:25:30.200Z,0.90
2022-08-06T04:27:58.628Z,0.73
2022-08-06T04:30:28.033Z,1.08
2022-08-06T04:33:00.750Z,0.90
2022-08-06T04:36:06.236Z,0.75
2022-08-06T04:38:26.743Z,0.75
2022-08-06T04:40:58.200Z,1.00
2022-08-06T04:43:38.324Z,1.35
2022-08-06T04:46:19.910Z,1.10
2022-08-06T04:48:50.821Z,1.02
2022-08-06T04:52:35.927Z,0.80
2022-08-06T04:54:12.322Z,1.08
2022-08-06T04:56:48.545Z,1.08
2022-08-06T04:59:18.127Z,1.33
2022-08-06T05:01:53.610Z,1.05
2022-08-06T05:04:28.417Z,1.00
2022-08-06T05:07:02.403Z,0.70
2022-08-06T05:09:42.426Z,0.73
2022-08-06T05:12:15.493Z,0.95
2022-08-06T05:14:47.473Z,1.02
2022-08-06T05:17:16.694Z,1.00
2022-08-06T05:19:45.530Z,0.90
2022-08-06T05:22:42.325Z,0.90
2022-08-06T05:25:13.152Z,0.82
2022-08-06T05:28:03.347Z,0.90
2022-08-06T05:30:34.101Z,0.95
2022-08-06T05:33:02.720Z,0.85
2022-08-06T05:35:40.077Z,1.08
2022-08-06T05:38:11.031Z,0.82
2022-08-06T05:40:53.715Z,1.30
2022-08-06T05:43:57.986Z,1.38
2022-08-06T05:46:14.518Z,1.20
2022-08-06T05:48:45.524Z,1.20
2022-08-06T05:51:23.402Z,1.33
2022-08-06T05:54:16.666Z,1.00
2022-08-06T05:56:46.256Z,1.40
2022-08-06T05:59:38.021Z,1.13
2022-08-06T06:02:07.614Z,1.30
2022-08-06T06:04:35.693Z,1.20
2022-08-06T06:07:04.433Z,1.20
2022-08-06T06:09:56.885Z,1.13
2022-08-06T06:12:22.520Z,1.13
2022-08-06T06:15:01.381Z,1.23
2022-08-06T06:17:56.726Z,0.98
2022-08-06T06:20:58.609Z,1.40
2022-08-06T06:23:26.371Z,0.85
2022-08-06T06:26:03.408Z,1.27
2022-08-06T06:28:35.225Z,1.67
2022-08-06T06:31:12.118Z,1.52
2022-08-06T06:33:51.051Z,1.35
2022-08-06T06:36:22.518Z,1.02
2022-08-06T06:39:05.637Z,1.13
2022-08-06T06:41:38.498Z,1.00
2022-08-06T06:44:17.576Z,0.93
2022-08-06T06:46:53.609Z,0.90
2022-08-06T06:50:01.201Z,1.23
2022-08-06T06:52:26.324Z,1.05
2022-08-06T06:55:00.112Z,0.98
2022-08-06T06:57:42.777Z,1.23
2022-08-06T07:00:44.040Z,1.20
2022-08-06T07:03:02.644Z,0.90
2022-08-06T07:06:04.504Z,0.90
2022-08-06T07:08:30.047Z,0.90
2022-08-06T07:11:00.636Z,1.20
2022-08-06T07:13:47.870Z,1.20
2022-08-06T07:16:34.406Z,0.90
2022-08-06T07:19:05.178Z,1.40
2022-08-06T07:21:33.015Z,1.30
2022-08-06T07:24:06.305Z,1.08
2022-08-06T07:26:51.055Z,0.90
2022-08-06T07:29:42.392Z,1.10
2022-08-06T07:32:11.183Z,1.00
2022-08-06T07:34:57.848Z,0.80
2022-08-06T07:37:38.365Z,0.73
2022-08-06T07:40:08.615Z,0.75
2022-08-06T07:42:38.157Z,0.75
2022-08-06T07:45:11.189Z,0.30
2022-08-06T07:47:54.398Z,0.80
2022-08-06T07:50:24.477Z,0.35
2022-08-06T07:52:53.546Z,0.50
2022-08-06T07:55:26.290Z,0.10
2022-08-06T07:58:00.329Z,0.10
2022-08-06T08:00:29.619Z,0.20
2022-08-06T08:03:19.304Z,0.40
2022-08-06T08:06:23.279Z,0.63
2022-08-06T08:08:52.956Z,0.95
2022-08-06T08:11:38.053Z,0.50
2022-08-06T08:14:09.709Z,0.35
2022-08-06T08:16:42.676Z,0.65
2022-08-06T08:19:27.382Z,0.20
2022-08-06T08:22:03.606Z,0.10
2022-08-06T08:24:33.781Z,0.40
2022-08-06T08:27:05.044Z,0.50
2022-08-06T08:29:54.548Z,0.40
2022-08-06T08:32:24.285Z,0.47
2022-08-06T08:34:53.188Z,0.60
2022-08-06T08:37:21.964Z,0.70
2022-08-06T08:39:50.238Z,0.47
2022-08-06T08:42:28.530Z,0.60
2022-08-06T08:45:02.912Z,0.52
2022-08-06T08:47:46.612Z,0.50
2022-08-06T08:50:20.802Z,0.73
2022-08-06T08:52:50.505Z,0.82
2022-08-06T08:57:07.248Z,0.40
2022-08-06T08:58:40.364Z,0.65
2022-08-06T09:00:55.366Z,0.47
2022-08-06T09:03:24.993Z,0.30
2022-08-06T09:05:53.341Z,0.80
2022-08-06T09:08:59.804Z,0.60
2022-08-06T09:11:20.494Z,0.40
2022-08-06T09:13:57.632Z,0.75
2022-08-06T09:16:31.767Z,0.35
2022-08-06T09:19:01.968Z,0.60
2022-08-06T09:21:31.026Z,0.90
2022-08-06T09:23:59.847Z,0.70
2022-08-06T09:26:54.394Z,0.50
2022-08-06T09:29:31.867Z,0.40
2022-08-06T09:32:01.989Z,0.82
2022-08-06T09:34:39.039Z,0.50
2022-08-06T09:37:07.677Z,0.60
2022-08-06T09:40:00.347Z,0.68
2022-08-06T09:42:41.556Z,0.82
2022-08-06T09:45:16.235Z,0.50
2022-08-06T09:47:58.020Z,0.77
2022-08-06T09:50:47.186Z,0.60
2022-08-06T09:53:21.602Z,0.70
2022-08-06T09:55:50.543Z,0.60
2022-08-06T09:58:31.903Z,0.50
2022-08-06T10:01:12.507Z,0.45
2022-08-06T10:04:08.627Z,0.82
2022-08-06T10:06:52.112Z,0.73
2022-08-06T10:09:44.100Z,0.70
2022-08-06T10:12:18.697Z,0.40
2022-08-06T10:14:46.593Z,0.47
2022-08-06T10:17:17.800Z,0.55
2022-08-06T10:19:52.393Z,0.52
2022-08-06T10:22:21.936Z,0.45
2022-08-06T10:24:52.876Z,0.70
2022-08-06T10:27:21.757Z,0.43
2022-08-06T10:29:51.717Z,0.70
2022-08-06T10:32:30.487Z,0.60
2022-08-06T10:35:11.662Z,0.50
2022-08-06T10:37:49.479Z,0.57
2022-08-06T10:40:30.522Z,0.50
2022-08-06T10:42:59.909Z,0.47
2022-08-06T10:45:48.803Z,0.50
2022-08-06T10:49:00.470Z,0.60
2022-08-06T10:51:05.582Z,0.65
2022-08-06T10:54:01.610Z,0.57
2022-08-06T10:56:31.820Z,0.50
2022-08-06T10:59:06.304Z,0.52
2022-08-06T11:01:36.192Z,0.52
2022-08-06T11:04:18.350Z,0.57
2022-08-06T11:06:54.297Z,0.80
2022-08-06T11:09:59.533Z,0.50
2022-08-06T11:12:38.724Z,0.50
2022-08-06T11:15:08.278Z,0.60
2022-08-06T11:17:45.952Z,0.63
2022-08-06T11:20:32.467Z,0.32
2022-08-06T11:23:00.935Z,0.70
2022-08-06T11:25:41.737Z,0.82
2022-08-06T11:28:13.985Z,0.70
2022-08-06T11:30:46.103Z,0.70
2022-08-06T11:33:16.138Z,0.73
2022-08-06T11:35:52.040Z,0.50
2022-08-06T11:38:39.214Z,0.30
2022-08-06T11:41:50.564Z,0.40
2022-08-06T11:44:08.326Z,0.52
2022-08-06T11:46:43.205Z,0.52
2022-08-06T11:49:18.167Z,0.70
2022-08-06T11:51:59.382Z,0.90
2022-08-06T11:54:33.616Z,0.38
2022-08-06T11:57:40.306Z,0.52
2022-08-06T12:00:14.726Z,1.45
2022-08-06T12:02:58.345Z,0.70
2022-08-06T12:05:58.046Z,0.55
2022-08-06T12:08:42.864Z,1.00
2022-08-06T12:11:38.638Z,1.45
2022-08-06T12:14:33.631Z,0.80
2022-08-06T12:16:58.624Z,0.50
2022-08-06T12:19:30.453Z,0.70
2022-08-06T12:22:00.602Z,0.68
2022-08-06T12:24:51.840Z,0.65
2022-08-06T12:27:24.273Z,0.68
2022-08-06T12:29:57.284Z,1.02
2022-08-06T12:32:30.006Z,0.70
2022-08-06T12:34:59.879Z,1.00
2022-08-06T12:37:41.222Z,0.63
2022-08-06T12:40:28.191Z,0.52
2022-08-06T12:42:56.424Z,0.65
2022-08-06T12:46:04.448Z,0.95
2022-08-06T12:48:20.980Z,0.68
2022-08-06T12:50:48.864Z,1.00
2022-08-06T12:53:21.030Z,1.30
2022-08-06T12:55:56.752Z,1.10
2022-08-06T12:58:39.902Z,0.90
2022-08-06T13:01:12.703Z,1.05
2022-08-06T13:03:49.175Z,1.17
2022-08-06T13:06:32.212Z,1.05
2022-08-06T13:09:07.730Z,0.90
2022-08-06T13:11:37.089Z,1.33
2022-08-06T13:14:17.911Z,0.60
2022-08-06T13:16:54.562Z,0.52
2022-08-06T13:19:32.343Z,0.57
2022-08-06T13:22:08.571Z,0.80
2022-08-06T13:25:03.306Z,0.98
2022-08-06T13:27:34.988Z,1.02
2022-08-06T13:30:34.713Z,0.80
2022-08-06T13:32:54.651Z,0.80
2022-08-06T13:35:30.795Z,0.95
2022-08-06T13:38:15.345Z,1.10
2022-08-06T13:40:47.096Z,0.90
2022-08-06T13:43:38.860Z,0.90
2022-08-06T13:46:11.708Z,1.40
2022-08-06T13:48:43.613Z,0.98
2022-08-06T13:51:22.651Z,1.10
2022-08-06T13:53:57.177Z,1.05
2022-08-06T13:56:28.618Z,1.23
2022-08-06T13:58:57.998Z,1.05
2022-08-06T14:01:35.031Z,0.70
2022-08-06T14:04:13.812Z,0.85
2022-08-06T14:06:44.735Z,1.10
2022-08-06T14:09:20.641Z,0.80
2022-08-06T14:11:51.469Z,1.00
2022-08-06T14:14:22.479Z,0.85
2022-08-06T14:16:51.299Z,1.00
2022-08-06T14:20:16.296Z,1.20
2022-08-06T14:22:08.559Z,1.00
2022-08-06T14:24:39.653Z,0.90
2022-08-06T14:27:14.706Z,0.90
2022-08-06T14:30:22.366Z,0.93
2022-08-06T14:32:31.612Z,1.00
2022-08-06T14:35:03.532Z,1.10
2022-08-06T14:37:50.732Z,0.90
2022-08-06T14:40:43.002Z,1.00
2022-08-06T14:43:56.265Z,1.05
2022-08-06T14:46:26.840Z,1.10
2022-08-06T14:48:57.516Z,1.02
2022-08-06T14:52:00.988Z,1.05
2022-08-06T14:54:15.294Z,1.02
2022-08-06T14:56:46.018Z,1.00
2022-08-06T14:59:19.952Z,1.17
2022-08-06T15:01:47.837Z,1.17
2022-08-06T15:04:23.568Z,1.13
2022-08-06T15:06:53.552Z,1.00
2022-08-06T15:10:04.303Z,1.15
2022-08-06T15:12:11.640Z,1.10
2022-08-06T15:14:50.941Z,1.20
2022-08-06T15:17:50.444Z,0.80
2022-08-06T15:20:09.162Z,1.25
2022-08-06T15:22:37.684Z,0.90
2022-08-06T15:25:17.636Z,1.00
2022-08-06T15:27:50.399Z,0.93
2022-08-06T15:30:18.619Z,0.90
2022-08-06T15:32:57.363Z,0.65
2022-08-06T15:35:38.546Z,0.90
2022-08-06T15:38:11.778Z,1.00
2022-08-06T15:40:45.172Z,1.00
2022-08-06T15:43:13.875Z,1.02
2022-08-06T15:45:51.458Z,1.00
2022-08-06T15:48:28.266Z,0.80
2022-08-06T15:51:27.500Z,1.10
2022-08-06T15:53:54.161Z,1.10
2022-08-06T15:56:38.852Z,1.17
2022-08-06T15:59:12.399Z,0.85
2022-08-06T16:02:01.189Z,1.10
2022-08-06T16:04:28.532Z,1.20
2022-08-06T16:06:56.771Z,1.23
2022-08-06T16:09:27.283Z,0.82
2022-08-06T16:11:57.385Z,0.90
2022-08-06T16:14:33.462Z,0.80
2022-08-06T16:17:06.194Z,1.30
2022-08-06T16:19:48.683Z,1.05
2022-08-06T16:22:17.651Z,0.90
2022-08-06T16:24:45.622Z,0.90
2022-08-06T16:27:17.191Z,0.90
2022-08-06T16:29:45.032Z,0.80
2022-08-06T16:32:21.296Z,0.90
2022-08-06T16:34:59.008Z,0.98
2022-08-06T16:37:32.748Z,1.20
2022-08-06T16:40:04.874Z,1.00
2022-08-06T16:42:34.963Z,1.05
2022-08-06T16:45:11.756Z,1.02
2022-08-06T16:48:20.946Z,1.00
2022-08-06T16:54:08.272Z,0.80
2022-08-06T16:56:06.123Z,0.90
2022-08-06T16:58:42.766Z,1.13
2022-08-06T17:02:15.150Z,1.10
2022-08-06T17:04:01.498Z,0.95
2022-08-06T17:06:35.293Z,0.95
2022-08-06T17:11:58.240Z,0.85
2022-08-06T17:14:32.670Z,0.90
2022-08-06T17:17:06.809Z,0.80
2022-08-06T17:19:37.014Z,0.70
2022-08-06T17:22:06.468Z,0.95
2022-08-06T17:24:37.016Z,0.70
2022-08-06T17:27:08.727Z,0.75
2022-08-06T17:29:45.670Z,0.80
2022-08-06T17:32:30.079Z,0.77
2022-08-06T17:35:06.461Z,0.98
2022-08-06T17:37:43.470Z,0.60
2022-08-06T17:40:19.169Z,0.75
2022-08-06T17:43:00.513Z,0.82
2022-08-06T17:45:35.430Z,0.70
2022-08-06T17:48:03.222Z,0.98
2022-08-06T17:50:40.654Z,0.77
2022-08-06T17:53:19.046Z,0.90
2022-08-06T17:55:59.347Z,0.80
2022-08-06T17:58:34.422Z,0.60
2022-08-06T18:01:10.002Z,0.80
2022-08-06T18:03:49.887Z,0.63
2022-08-06T18:06:19.601Z,1.02
2022-08-06T18:08:57.729Z,0.80
2022-08-06T18:11:26.164Z,0.88
2022-08-06T18:13:54.804Z,0.80
2022-08-06T18:16:29.714Z,1.00
2022-08-06T18:18:58.051Z,0.90
2022-08-06T18:21:26.001Z,0.70
2022-08-06T18:23:56.906Z,0.60
2022-08-06T18:26:30.854Z,0.73
2022-08-06T18:29:00.743Z,1.00
2022-08-06T18:31:58.748Z,0.80
2022-08-06T18:34:29.581Z,0.90
2022-08-06T18:37:19.331Z,0.90
2022-08-06T18:40:20.142Z,0.60
2022-08-06T18:42:33.565Z,0.95
2022-08-06T18:45:03.250Z,0.77
2022-08-06T18:47:33.303Z,0.90
2022-08-06T18:50:01.288Z,0.70
2022-08-06T18:52:33.600Z,0.70
2022-08-06T18:55:03.714Z,0.95
2022-08-06T18:58:04.854Z,1.08
2022-08-06T19:00:23.688Z,0.80
2022-08-06T19:02:56.094Z,0.60
2022-08-06T19:05:27.944Z,0.73
2022-08-06T19:07:58.487Z,0.55
2022-08-06T19:10:27.825Z,1.10
2022-08-06T19:12:55.652Z,0.60
2022-08-06T19:15:24.519Z,0.75
2022-08-06T19:18:13.890Z,0.93
2022-08-06T19:20:42.593Z,0.70
2022-08-06T19:23:12.398Z,0.65
2022-08-06T19:25:52.755Z,0.80
2022-08-06T19:28:35.059Z,0.80
2022-08-06T19:31:23.481Z,0.70
2022-08-06T19:34:08.741Z,0.90
2022-08-06T19:36:38.368Z,0.90
2022-08-06T19:39:52.248Z,0.73
2022-08-06T19:42:01.258Z,0.73
2022-08-06T19:44:35.875Z,0.70
2022-08-06T19:47:05.822Z,0.90
2022-08-06T19:49:44.749Z,0.70
2022-08-06T19:52:19.739Z,0.68
2022-08-06T19:54:51.289Z,0.82
2022-08-06T19:57:19.751Z,0.90
2022-08-06T20:00:55.395Z,0.65
2022-08-06T20:02:50.328Z,0.95
2022-08-06T20:05:21.445Z,1.05
2022-08-06T20:07:56.105Z,0.90
2022-08-06T20:10:37.141Z,0.85
2022-08-06T20:13:06.221Z,0.88
2022-08-06T20:15:45.736Z,0.60
2022-08-06T20:18:14.599Z,1.00
2022-08-06T20:20:44.030Z,1.00
2022-08-06T20:23:16.954Z,0.80
2022-08-06T20:26:08.678Z,0.95
2022-08-06T20:29:07.181Z,0.77
2022-08-06T20:31:22.769Z,0.90
2022-08-06T20:33:58.855Z,1.00
2022-08-06T20:36:29.373Z,0.77
2022-08-06T20:38:57.248Z,0.90
2022-08-06T20:41:56.963Z,0.82
2022-08-06T20:44:14.238Z,0.90
2022-08-06T20:47:44.023Z,0.85
2022-08-06T20:50:02.387Z,0.95
2022-08-06T20:52:23.449Z,0.80
2022-08-06T20:54:52.979Z,0.90
2022-08-06T20:57:27.730Z,0.98
2022-08-06T20:59:56.694Z,0.82
2022-08-06T21:02:25.921Z,0.75
2022-08-06T21:05:12.953Z,0.80
2022-08-06T21:07:50.955Z,0.90
2022-08-06T21:10:25.345Z,1.25
2022-08-06T21:13:00.942Z,0.80
2022-08-06T21:15:56.263Z,1.05
2022-08-06T21:18:20.500Z,1.45
2022-08-06T21:20:50.660Z,0.77
2022-08-06T21:23:21.214Z,0.88
2022-08-06T21:25:58.555Z,0.90
2022-08-06T21:28:26.754Z,0.90
2022-08-06T21:30:54.351Z,1.00
2022-08-06T21:33:27.312Z,1.05
2022-08-06T21:35:54.959Z,1.30
2022-08-06T21:38:24.480Z,1.00
2022-08-06T21:40:53.165Z,1.20
2022-08-06T21:43:22.201Z,1.00
2022-08-06T21:46:04.359Z,1.05
2022-08-06T21:48:34.245Z,1.00
2022-08-06T21:51:01.956Z,1.15
2022-08-06T21:53:52.447Z,1.17
2022-08-06T21:56:36.567Z,1.10
2022-08-06T21:59:10.188Z,1.05
2022-08-06T22:02:13.747Z,1.20
2022-08-06T22:04:39.682Z,1.13
2022-08-06T22:07:14.438Z,1.00
2022-08-06T22:09:46.318Z,0.90
2022-08-06T22:12:38.648Z,1.00
2022-08-06T22:15:02.820Z,1.00
2022-08-06T22:17:59.742Z,1.27
2022-08-06T22:20:22.108Z,0.90
2022-08-06T22:22:52.728Z,1.13
2022-08-06T22:25:23.013Z,1.08
2022-08-06T22:27:54.613Z,1.05
2022-08-06T22:30:37.251Z,1.02
2022-08-06T22:33:10.893Z,1.10
2022-08-06T22:35:57.978Z,1.10
2022-08-06T22:38:28.107Z,0.98
2022-08-06T22:41:01.349Z,1.20
2022-08-06T22:43:51.627Z,1.20
2022-08-06T22:46:18.061Z,0.98
2022-08-06T22:48:47.630Z,0.90
2022-08-06T22:51:18.820Z,0.90
2022-08-06T22:54:29.932Z,1.25
2022-08-06T22:56:38.146Z,1.27
2022-08-06T22:59:20.289Z,0.95
2022-08-06T23:02:07.690Z,1.00
2022-08-06T23:04:41.496Z,0.80
2022-08-06T23:07:13.873Z,1.02
2022-08-06T23:09:50.685Z,0.88
2022-08-06T23:12:25.289Z,1.27
2022-08-06T23:14:59.696Z,0.95
2022-08-06T23:17:40.188Z,1.00
2022-08-06T23:20:26.238Z,1.05
2022-08-06T23:23:00.722Z,1.27
2022-08-06T23:25:59.540Z,0.90
2022-08-06T23:28:17.924Z,1.17
2022-08-06T23:30:45.595Z,1.23
2022-08-06T23:33:13.260Z,1.33
2022-08-06T23:35:41.920Z,1.45
2022-08-06T23:38:33.667Z,1.42
2022-08-06T23:40:58.828Z,1.30
2022-08-06T23:43:34.397Z,1.40
2022-08-06T23:46:03.545Z,1.30
2022-08-06T23:48:31.775Z,1.38
2022-08-06T23:51:00.172Z,1.38
2022-08-06T23:54:07.882Z,1.38
2022-08-06T23:56:20.939Z,1.65
2022-08-06T23:58:55.881Z,1.48
